sensor_id;sensor_type;location;lat;lon;timestamp;temperature;humidity
53962;DHT22;39868;53.398;6.564;2022-11-27T00:01:20;9.50;80.80
53962;DHT22;39868;53.398;6.564;2022-11-27T00:03:48;9.50;80.80
53962;DHT22;39868;53.398;6.564;2022-11-27T00:06:18;9.50;80.80
53962;DHT22;39868;53.398;6.564;2022-11-27T00:08:46;9.40;80.80
53962;DHT22;39868;53.398;6.564;2022-11-27T00:11:17;9.40;80.90
53962;DHT22;39868;53.398;6.564;2022-11-27T00:13:45;9.40;80.90
53962;DHT22;39868;53.398;6.564;2022-11-27T00:16:13;9.40;80.90
53962;DHT22;39868;53.398;6.564;2022-11-27T00:18:41;9.30;80.90
53962;DHT22;39868;53.398;6.564;2022-11-27T00:21:33;9.30;80.90
53962;DHT22;39868;53.398;6.564;2022-11-27T00:24:03;9.30;81.00
53962;DHT22;39868;53.398;6.564;2022-11-27T00:26:31;9.30;81.00
53962;DHT22;39868;53.398;6.564;2022-11-27T00:29:05;9.20;81.00
53962;DHT22;39868;53.398;6.564;2022-11-27T00:31:34;9.20;81.00
53962;DHT22;39868;53.398;6.564;2022-11-27T00:34:05;9.20;81.10
53962;DHT22;39868;53.398;6.564;2022-11-27T00:36:34;9.20;81.10
53962;DHT22;39868;53.398;6.564;2022-11-27T00:39:02;9.20;81.20
53962;DHT22;39868;53.398;6.564;2022-11-27T00:41:30;9.10;81.10
53962;DHT22;39868;53.398;6.564;2022-11-27T00:43:57;9.10;81.20
53962;DHT22;39868;53.398;6.564;2022-11-27T00:46:28;9.10;81.30
53962;DHT22;39868;53.398;6.564;2022-11-27T00:48:57;9.10;81.30
53962;DHT22;39868;53.398;6.564;2022-11-27T00:51:25;9.10;81.30
53962;DHT22;39868;53.398;6.564;2022-11-27T00:53:53;9.10;81.40
53962;DHT22;39868;53.398;6.564;2022-11-27T00:56:24;9.10;81.40
53962;DHT22;39868;53.398;6.564;2022-11-27T00:58:52;9.10;81.40
53962;DHT22;39868;53.398;6.564;2022-11-27T01:01:26;9.10;81.40
53962;DHT22;39868;53.398;6.564;2022-11-27T01:03:56;9.10;81.40
53962;DHT22;39868;53.398;6.564;2022-11-27T01:06:24;9.10;81.40
53962;DHT22;39868;53.398;6.564;2022-11-27T01:08:53;9.10;81.40
53962;DHT22;39868;53.398;6.564;2022-11-27T01:11:23;9.10;81.40
53962;DHT22;39868;53.398;6.564;2022-11-27T01:13:56;9.10;81.40
53962;DHT22;39868;53.398;6.564;2022-11-27T01:16:26;9.10;81.40
53962;DHT22;39868;53.398;6.564;2022-11-27T01:18:56;9.10;81.40
53962;DHT22;39868;53.398;6.564;2022-11-27T01:21:26;9.10;81.40
53962;DHT22;39868;53.398;6.564;2022-11-27T01:23:54;9.10;81.40
53962;DHT22;39868;53.398;6.564;2022-11-27T01:26:22;9.10;81.40
53962;DHT22;39868;53.398;6.564;2022-11-27T01:28:54;9.10;81.40
53962;DHT22;39868;53.398;6.564;2022-11-27T01:31:23;9.10;81.40
53962;DHT22;39868;53.398;6.564;2022-11-27T01:33:53;9.10;81.40
53962;DHT22;39868;53.398;6.564;2022-11-27T01:36:22;9.10;81.40
53962;DHT22;39868;53.398;6.564;2022-11-27T01:38:50;9.10;81.40
53962;DHT22;39868;53.398;6.564;2022-11-27T01:41:22;9.10;81.40
53962;DHT22;39868;53.398;6.564;2022-11-27T01:46:42;9.10;81.30
53962;DHT22;39868;53.398;6.564;2022-11-27T01:49:22;9.10;81.30
53962;DHT22;39868;53.398;6.564;2022-11-27T01:54:40;9.00;81.20
53962;DHT22;39868;53.398;6.564;2022-11-27T01:57:17;9.00;81.10
53962;DHT22;39868;53.398;6.564;2022-11-27T01:59:47;9.00;81.10
53962;DHT22;39868;53.398;6.564;2022-11-27T02:02:15;9.00;81.00
53962;DHT22;39868;53.398;6.564;2022-11-27T02:04:43;9.00;81.00
53962;DHT22;39868;53.398;6.564;2022-11-27T02:07:11;8.90;80.90
53962;DHT22;39868;53.398;6.564;2022-11-27T02:09:39;8.90;80.90
53962;DHT22;39868;53.398;6.564;2022-11-27T02:12:15;8.90;80.90
53962;DHT22;39868;53.398;6.564;2022-11-27T02:15:00;8.90;80.90
53962;DHT22;39868;53.398;6.564;2022-11-27T02:17:39;8.90;81.00
53962;DHT22;39868;53.398;6.564;2022-11-27T02:23:40;8.90;81.10
53962;DHT22;39868;53.398;6.564;2022-11-27T02:29:11;8.90;81.10
53962;DHT22;39868;53.398;6.564;2022-11-27T02:36:57;8.90;81.10
53962;DHT22;39868;53.398;6.564;2022-11-27T02:39:33;8.90;81.10
53962;DHT22;39868;53.398;6.564;2022-11-27T02:42:14;8.90;81.00
53962;DHT22;39868;53.398;6.564;2022-11-27T02:44:48;8.90;81.00
53962;DHT22;39868;53.398;6.564;2022-11-27T02:47:17;8.90;81.00
53962;DHT22;39868;53.398;6.564;2022-11-27T02:49:47;9.00;81.00
53962;DHT22;39868;53.398;6.564;2022-11-27T02:52:17;8.90;81.00
53962;DHT22;39868;53.398;6.564;2022-11-27T02:54:47;9.00;81.00
53962;DHT22;39868;53.398;6.564;2022-11-27T02:57:19;9.00;81.00
53962;DHT22;39868;53.398;6.564;2022-11-27T02:59:48;9.00;81.00
53962;DHT22;39868;53.398;6.564;2022-11-27T03:02:19;9.00;81.00
53962;DHT22;39868;53.398;6.564;2022-11-27T03:04:53;9.00;81.00
53962;DHT22;39868;53.398;6.564;2022-11-27T03:07:37;9.00;81.00
53962;DHT22;39868;53.398;6.564;2022-11-27T03:10:20;9.10;81.00
53962;DHT22;39868;53.398;6.564;2022-11-27T03:12:50;9.10;81.00
53962;DHT22;39868;53.398;6.564;2022-11-27T03:15:19;9.10;81.00
53962;DHT22;39868;53.398;6.564;2022-11-27T03:18:22;9.10;81.00
53962;DHT22;39868;53.398;6.564;2022-11-27T03:21:03;9.10;80.90
53962;DHT22;39868;53.398;6.564;2022-11-27T03:23:31;9.20;80.90
53962;DHT22;39868;53.398;6.564;2022-11-27T03:25:59;9.20;80.80
53962;DHT22;39868;53.398;6.564;2022-11-27T03:28:27;9.20;80.80
53962;DHT22;39868;53.398;6.564;2022-11-27T03:30:55;9.20;80.70
53962;DHT22;39868;53.398;6.564;2022-11-27T03:33:23;9.20;80.70
53962;DHT22;39868;53.398;6.564;2022-11-27T03:35:51;9.20;80.70
53962;DHT22;39868;53.398;6.564;2022-11-27T03:38:19;9.20;80.70
53962;DHT22;39868;53.398;6.564;2022-11-27T03:41:10;9.20;80.60
53962;DHT22;39868;53.398;6.564;2022-11-27T03:49:47;9.20;80.60
53962;DHT22;39868;53.398;6.564;2022-11-27T03:55:55;9.30;80.60
53962;DHT22;39868;53.398;6.564;2022-11-27T03:58:37;9.30;80.60
53962;DHT22;39868;53.398;6.564;2022-11-27T04:01:08;9.30;80.60
53962;DHT22;39868;53.398;6.564;2022-11-27T04:03:37;9.30;80.50
53962;DHT22;39868;53.398;6.564;2022-11-27T04:06:05;9.30;80.50
53962;DHT22;39868;53.398;6.564;2022-11-27T04:08:33;9.30;80.40
53962;DHT22;39868;53.398;6.564;2022-11-27T04:11:00;9.30;80.40
53962;DHT22;39868;53.398;6.564;2022-11-27T04:13:28;9.30;80.40
53962;DHT22;39868;53.398;6.564;2022-11-27T04:15:59;9.30;80.30
53962;DHT22;39868;53.398;6.564;2022-11-27T04:18:27;9.30;80.20
53962;DHT22;39868;53.398;6.564;2022-11-27T04:20:55;9.30;80.20
53962;DHT22;39868;53.398;6.564;2022-11-27T04:23:23;9.30;80.30
53962;DHT22;39868;53.398;6.564;2022-11-27T04:25:50;9.30;80.20
53962;DHT22;39868;53.398;6.564;2022-11-27T04:28:18;9.30;80.20
53962;DHT22;39868;53.398;6.564;2022-11-27T04:30:50;9.30;80.10
53962;DHT22;39868;53.398;6.564;2022-11-27T04:33:18;9.30;80.10
53962;DHT22;39868;53.398;6.564;2022-11-27T04:35:45;9.30;80.30
53962;DHT22;39868;53.398;6.564;2022-11-27T04:38:13;9.30;80.10
53962;DHT22;39868;53.398;6.564;2022-11-27T04:40:41;9.30;80.10
53962;DHT22;39868;53.398;6.564;2022-11-27T04:43:08;9.30;80.10
53962;DHT22;39868;53.398;6.564;2022-11-27T04:45:36;9.30;80.00
53962;DHT22;39868;53.398;6.564;2022-11-27T04:48:04;9.30;80.00
53962;DHT22;39868;53.398;6.564;2022-11-27T04:50:31;9.30;79.90
53962;DHT22;39868;53.398;6.564;2022-11-27T04:52:59;9.30;79.90
53962;DHT22;39868;53.398;6.564;2022-11-27T04:55:26;9.20;79.90
53962;DHT22;39868;53.398;6.564;2022-11-27T04:57:54;9.30;79.90
53962;DHT22;39868;53.398;6.564;2022-11-27T05:00:21;9.20;80.40
53962;DHT22;39868;53.398;6.564;2022-11-27T05:02:49;9.20;79.80
53962;DHT22;39868;53.398;6.564;2022-11-27T05:05:16;9.20;79.80
53962;DHT22;39868;53.398;6.564;2022-11-27T05:07:44;9.20;79.80
53962;DHT22;39868;53.398;6.564;2022-11-27T05:10:12;9.20;79.80
53962;DHT22;39868;53.398;6.564;2022-11-27T05:12:39;9.20;79.80
53962;DHT22;39868;53.398;6.564;2022-11-27T05:15:07;9.20;79.80
53962;DHT22;39868;53.398;6.564;2022-11-27T05:17:35;9.20;79.80
53962;DHT22;39868;53.398;6.564;2022-11-27T05:20:03;9.20;79.70
53962;DHT22;39868;53.398;6.564;2022-11-27T05:22:30;9.20;79.70
53962;DHT22;39868;53.398;6.564;2022-11-27T05:24:58;9.20;79.70
53962;DHT22;39868;53.398;6.564;2022-11-27T05:27:25;9.10;79.60
53962;DHT22;39868;53.398;6.564;2022-11-27T05:29:53;9.10;79.60
53962;DHT22;39868;53.398;6.564;2022-11-27T05:32:21;9.10;79.60
53962;DHT22;39868;53.398;6.564;2022-11-27T05:34:48;9.10;79.60
53962;DHT22;39868;53.398;6.564;2022-11-27T05:37:16;9.10;79.60
53962;DHT22;39868;53.398;6.564;2022-11-27T05:39:46;9.00;79.60
53962;DHT22;39868;53.398;6.564;2022-11-27T05:42:13;9.00;79.60
53962;DHT22;39868;53.398;6.564;2022-11-27T05:44:41;9.00;79.60
53962;DHT22;39868;53.398;6.564;2022-11-27T05:47:09;9.00;79.60
53962;DHT22;39868;53.398;6.564;2022-11-27T05:49:36;8.90;79.50
53962;DHT22;39868;53.398;6.564;2022-11-27T05:52:05;8.90;79.50
53962;DHT22;39868;53.398;6.564;2022-11-27T05:54:32;8.90;79.50
53962;DHT22;39868;53.398;6.564;2022-11-27T05:57:00;8.90;79.50
53962;DHT22;39868;53.398;6.564;2022-11-27T05:59:27;8.80;79.50
53962;DHT22;39868;53.398;6.564;2022-11-27T06:01:55;8.80;79.50
53962;DHT22;39868;53.398;6.564;2022-11-27T06:04:22;8.80;79.50
53962;DHT22;39868;53.398;6.564;2022-11-27T06:06:50;8.80;79.50
53962;DHT22;39868;53.398;6.564;2022-11-27T06:09:17;8.70;79.50
53962;DHT22;39868;53.398;6.564;2022-11-27T06:11:45;8.70;79.50
53962;DHT22;39868;53.398;6.564;2022-11-27T06:14:13;8.70;79.60
53962;DHT22;39868;53.398;6.564;2022-11-27T06:16:40;8.70;79.60
53962;DHT22;39868;53.398;6.564;2022-11-27T06:19:08;8.70;79.60
53962;DHT22;39868;53.398;6.564;2022-11-27T06:21:36;8.70;79.60
53962;DHT22;39868;53.398;6.564;2022-11-27T06:24:03;8.60;79.60
53962;DHT22;39868;53.398;6.564;2022-11-27T06:26:32;8.60;79.60
53962;DHT22;39868;53.398;6.564;2022-11-27T06:29:00;8.60;79.70
53962;DHT22;39868;53.398;6.564;2022-11-27T06:31:30;8.60;79.70
53962;DHT22;39868;53.398;6.564;2022-11-27T06:33:58;8.60;79.70
53962;DHT22;39868;53.398;6.564;2022-11-27T06:36:29;8.60;79.70
53962;DHT22;39868;53.398;6.564;2022-11-27T06:38:57;8.60;79.70
53962;DHT22;39868;53.398;6.564;2022-11-27T06:41:25;8.60;79.80
53962;DHT22;39868;53.398;6.564;2022-11-27T06:43:54;8.60;79.80
53962;DHT22;39868;53.398;6.564;2022-11-27T06:46:22;8.60;79.80
53962;DHT22;39868;53.398;6.564;2022-11-27T06:48:51;8.60;79.80
53962;DHT22;39868;53.398;6.564;2022-11-27T06:51:21;8.60;79.80
53962;DHT22;39868;53.398;6.564;2022-11-27T06:53:51;8.60;79.80
53962;DHT22;39868;53.398;6.564;2022-11-27T06:56:21;8.70;79.80
53962;DHT22;39868;53.398;6.564;2022-11-27T06:58:53;8.70;79.80
53962;DHT22;39868;53.398;6.564;2022-11-27T07:01:22;8.70;79.80
53962;DHT22;39868;53.398;6.564;2022-11-27T07:03:50;8.70;79.70
53962;DHT22;39868;53.398;6.564;2022-11-27T07:06:20;8.70;79.70
53962;DHT22;39868;53.398;6.564;2022-11-27T07:08:48;8.80;79.70
53962;DHT22;39868;53.398;6.564;2022-11-27T07:11:21;8.80;79.60
53962;DHT22;39868;53.398;6.564;2022-11-27T07:13:49;8.80;79.50
53962;DHT22;39868;53.398;6.564;2022-11-27T07:16:17;8.80;79.40
53962;DHT22;39868;53.398;6.564;2022-11-27T07:18:47;8.90;79.40
53962;DHT22;39868;53.398;6.564;2022-11-27T07:21:16;8.90;79.40
53962;DHT22;39868;53.398;6.564;2022-11-27T07:23:44;8.90;79.40
53962;DHT22;39868;53.398;6.564;2022-11-27T07:26:18;8.90;79.30
53962;DHT22;39868;53.398;6.564;2022-11-27T07:28:46;9.00;79.30
53962;DHT22;39868;53.398;6.564;2022-11-27T07:31:17;9.00;79.20
53962;DHT22;39868;53.398;6.564;2022-11-27T07:33:45;9.00;79.20
53962;DHT22;39868;53.398;6.564;2022-11-27T07:36:15;9.10;79.20
53962;DHT22;39868;53.398;6.564;2022-11-27T07:38:43;9.10;79.10
53962;DHT22;39868;53.398;6.564;2022-11-27T07:41:11;9.10;79.00
53962;DHT22;39868;53.398;6.564;2022-11-27T07:43:40;9.10;78.90
53962;DHT22;39868;53.398;6.564;2022-11-27T07:46:14;9.10;78.90
53962;DHT22;39868;53.398;6.564;2022-11-27T07:48:42;9.10;78.80
53962;DHT22;39868;53.398;6.564;2022-11-27T07:51:12;9.10;78.80
53962;DHT22;39868;53.398;6.564;2022-11-27T07:53:40;9.20;78.80
53962;DHT22;39868;53.398;6.564;2022-11-27T07:56:10;9.20;78.80
53962;DHT22;39868;53.398;6.564;2022-11-27T07:58:38;9.20;78.70
53962;DHT22;39868;53.398;6.564;2022-11-27T08:01:08;9.20;78.70
53962;DHT22;39868;53.398;6.564;2022-11-27T08:03:37;9.20;78.70
53962;DHT22;39868;53.398;6.564;2022-11-27T08:06:19;9.20;78.60
53962;DHT22;39868;53.398;6.564;2022-11-27T08:08:47;9.30;78.60
53962;DHT22;39868;53.398;6.564;2022-11-27T08:11:23;9.20;78.70
53962;DHT22;39868;53.398;6.564;2022-11-27T08:13:59;9.30;78.70
53962;DHT22;39868;53.398;6.564;2022-11-27T08:16:27;9.30;78.70
53962;DHT22;39868;53.398;6.564;2022-11-27T08:18:55;9.30;78.70
53962;DHT22;39868;53.398;6.564;2022-11-27T08:21:23;9.30;78.70
53962;DHT22;39868;53.398;6.564;2022-11-27T08:23:51;9.30;78.60
53962;DHT22;39868;53.398;6.564;2022-11-27T08:26:19;9.30;78.60
53962;DHT22;39868;53.398;6.564;2022-11-27T08:28:47;9.40;79.10
53962;DHT22;39868;53.398;6.564;2022-11-27T08:31:14;9.30;78.40
53962;DHT22;39868;53.398;6.564;2022-11-27T08:33:42;9.30;78.40
53962;DHT22;39868;53.398;6.564;2022-11-27T08:36:10;9.40;78.50
53962;DHT22;39868;53.398;6.564;2022-11-27T08:38:44;9.40;78.40
53962;DHT22;39868;53.398;6.564;2022-11-27T08:41:12;9.30;78.30
53962;DHT22;39868;53.398;6.564;2022-11-27T08:43:40;9.40;78.30
53962;DHT22;39868;53.398;6.564;2022-11-27T08:46:08;9.40;78.30
53962;DHT22;39868;53.398;6.564;2022-11-27T08:48:36;9.40;78.30
53962;DHT22;39868;53.398;6.564;2022-11-27T08:51:14;9.40;78.30
53962;DHT22;39868;53.398;6.564;2022-11-27T08:53:42;9.40;78.20
53962;DHT22;39868;53.398;6.564;2022-11-27T08:56:16;9.40;78.30
53962;DHT22;39868;53.398;6.564;2022-11-27T08:58:44;9.40;78.30
53962;DHT22;39868;53.398;6.564;2022-11-27T09:01:16;9.40;78.30
53962;DHT22;39868;53.398;6.564;2022-11-27T09:03:45;9.40;78.20
53962;DHT22;39868;53.398;6.564;2022-11-27T09:06:15;9.40;78.30
53962;DHT22;39868;53.398;6.564;2022-11-27T09:08:43;9.40;78.20
53962;DHT22;39868;53.398;6.564;2022-11-27T09:11:12;9.40;78.30
53962;DHT22;39868;53.398;6.564;2022-11-27T09:13:42;9.50;78.30
53962;DHT22;39868;53.398;6.564;2022-11-27T09:16:12;9.40;78.20
53962;DHT22;39868;53.398;6.564;2022-11-27T09:18:43;9.50;78.30
53962;DHT22;39868;53.398;6.564;2022-11-27T09:21:12;9.50;78.30
53962;DHT22;39868;53.398;6.564;2022-11-27T09:23:40;9.50;78.30
53962;DHT22;39868;53.398;6.564;2022-11-27T09:26:13;9.50;78.30
53962;DHT22;39868;53.398;6.564;2022-11-27T09:28:42;9.50;78.30
53962;DHT22;39868;53.398;6.564;2022-11-27T09:31:13;9.50;78.30
53962;DHT22;39868;53.398;6.564;2022-11-27T09:33:41;9.50;78.30
53962;DHT22;39868;53.398;6.564;2022-11-27T09:36:14;9.50;78.30
53962;DHT22;39868;53.398;6.564;2022-11-27T09:38:43;9.50;78.30
53962;DHT22;39868;53.398;6.564;2022-11-27T09:43:51;9.50;78.30
53962;DHT22;39868;53.398;6.564;2022-11-27T09:46:34;9.50;78.30
53962;DHT22;39868;53.398;6.564;2022-11-27T09:49:04;9.50;78.30
53962;DHT22;39868;53.398;6.564;2022-11-27T09:51:48;9.50;78.50
53962;DHT22;39868;53.398;6.564;2022-11-27T09:55:04;9.50;78.40
53962;DHT22;39868;53.398;6.564;2022-11-27T09:57:25;9.50;78.30
53962;DHT22;39868;53.398;6.564;2022-11-27T09:59:54;9.50;78.40
53962;DHT22;39868;53.398;6.564;2022-11-27T10:02:34;9.50;78.40
53962;DHT22;39868;53.398;6.564;2022-11-27T10:10:31;9.50;78.50
53962;DHT22;39868;53.398;6.564;2022-11-27T10:18:45;9.50;78.70
53962;DHT22;39868;53.398;6.564;2022-11-27T10:26:44;9.40;78.60
53962;DHT22;39868;53.398;6.564;2022-11-27T10:29:28;9.40;78.60
53962;DHT22;39868;53.398;6.564;2022-11-27T10:32:00;9.40;78.70
53962;DHT22;39868;53.398;6.564;2022-11-27T10:34:37;9.40;78.60
53962;DHT22;39868;53.398;6.564;2022-11-27T10:42:53;9.30;78.70
53962;DHT22;39868;53.398;6.564;2022-11-27T10:48:11;9.30;78.70
53962;DHT22;39868;53.398;6.564;2022-11-27T10:50:40;9.30;78.80
53962;DHT22;39868;53.398;6.564;2022-11-27T10:58:56;9.20;78.90
53962;DHT22;39868;53.398;6.564;2022-11-27T11:01:27;9.20;79.00
53962;DHT22;39868;53.398;6.564;2022-11-27T11:04:06;9.20;79.00
53962;DHT22;39868;53.398;6.564;2022-11-27T11:06:54;9.20;79.10
53962;DHT22;39868;53.398;6.564;2022-11-27T11:11:51;9.10;79.10
53962;DHT22;39868;53.398;6.564;2022-11-27T11:14:24;9.20;79.80
53962;DHT22;39868;53.398;6.564;2022-11-27T11:16:54;9.20;79.30
53962;DHT22;39868;53.398;6.564;2022-11-27T11:19:30;9.20;79.30
53962;DHT22;39868;53.398;6.564;2022-11-27T11:21:59;9.20;79.40
53962;DHT22;39868;53.398;6.564;2022-11-27T11:24:32;9.20;79.40
53962;DHT22;39868;53.398;6.564;2022-11-27T11:27:19;9.20;80.00
53962;DHT22;39868;53.398;6.564;2022-11-27T11:30:02;9.20;79.50
53962;DHT22;39868;53.398;6.564;2022-11-27T11:32:35;9.20;79.50
53962;DHT22;39868;53.398;6.564;2022-11-27T11:35:08;9.20;79.50
53962;DHT22;39868;53.398;6.564;2022-11-27T11:37:44;9.20;79.60
53962;DHT22;39868;53.398;6.564;2022-11-27T11:42:57;9.20;79.60
53962;DHT22;39868;53.398;6.564;2022-11-27T11:45:25;9.20;79.60
53962;DHT22;39868;53.398;6.564;2022-11-27T11:48:18;9.20;79.60
53962;DHT22;39868;53.398;6.564;2022-11-27T11:51:10;9.20;79.60
53962;DHT22;39868;53.398;6.564;2022-11-27T11:53:43;9.20;79.70
53962;DHT22;39868;53.398;6.564;2022-11-27T11:56:54;9.20;79.80
53962;DHT22;39868;53.398;6.564;2022-11-27T12:02:05;9.20;79.80
53962;DHT22;39868;53.398;6.564;2022-11-27T12:05:07;9.20;79.80
53962;DHT22;39868;53.398;6.564;2022-11-27T12:10:29;9.30;79.90
53962;DHT22;39868;53.398;6.564;2022-11-27T12:16:04;9.30;79.90
53962;DHT22;39868;53.398;6.564;2022-11-27T12:35:37;9.30;79.90
53962;DHT22;39868;53.398;6.564;2022-11-27T12:38:37;9.40;80.00
53962;DHT22;39868;53.398;6.564;2022-11-27T12:43:59;9.40;80.00
53962;DHT22;39868;53.398;6.564;2022-11-27T12:49:37;9.40;80.00
53962;DHT22;39868;53.398;6.564;2022-11-27T12:52:15;9.40;79.90
53962;DHT22;39868;53.398;6.564;2022-11-27T12:54:53;9.40;79.90
53962;DHT22;39868;53.398;6.564;2022-11-27T12:57:55;9.50;80.00
53962;DHT22;39868;53.398;6.564;2022-11-27T13:00:23;9.50;80.00
53962;DHT22;39868;53.398;6.564;2022-11-27T13:03:10;9.50;79.90
53962;DHT22;39868;53.398;6.564;2022-11-27T13:05:45;9.50;79.90
53962;DHT22;39868;53.398;6.564;2022-11-27T13:08:25;9.50;79.90
53962;DHT22;39868;53.398;6.564;2022-11-27T13:10:58;9.50;79.90
53962;DHT22;39868;53.398;6.564;2022-11-27T13:13:46;9.50;79.80
53962;DHT22;39868;53.398;6.564;2022-11-27T13:16:33;9.50;79.80
53962;DHT22;39868;53.398;6.564;2022-11-27T13:19:27;9.50;79.80
53962;DHT22;39868;53.398;6.564;2022-11-27T13:21:59;9.50;80.40
53962;DHT22;39868;53.398;6.564;2022-11-27T13:24:27;9.50;79.80
53962;DHT22;39868;53.398;6.564;2022-11-27T13:29:46;9.50;79.80
53962;DHT22;39868;53.398;6.564;2022-11-27T13:32:38;9.50;79.80
53962;DHT22;39868;53.398;6.564;2022-11-27T13:35:26;9.50;79.80
53962;DHT22;39868;53.398;6.564;2022-11-27T13:38:20;9.50;79.80
53962;DHT22;39868;53.398;6.564;2022-11-27T13:40:47;9.50;79.80
53962;DHT22;39868;53.398;6.564;2022-11-27T13:43:27;9.50;79.80
53962;DHT22;39868;53.398;6.564;2022-11-27T13:46:29;9.50;79.80
53962;DHT22;39868;53.398;6.564;2022-11-27T13:49:03;9.50;79.80
53962;DHT22;39868;53.398;6.564;2022-11-27T13:51:36;9.50;79.80
53962;DHT22;39868;53.398;6.564;2022-11-27T13:54:13;9.50;79.80
53962;DHT22;39868;53.398;6.564;2022-11-27T13:56:42;9.50;79.80
53962;DHT22;39868;53.398;6.564;2022-11-27T13:59:21;9.50;79.80
53962;DHT22;39868;53.398;6.564;2022-11-27T14:02:01;9.50;79.80
53962;DHT22;39868;53.398;6.564;2022-11-27T14:04:31;9.50;79.80
53962;DHT22;39868;53.398;6.564;2022-11-27T14:07:08;9.50;79.80
53962;DHT22;39868;53.398;6.564;2022-11-27T14:09:42;9.50;79.80
53962;DHT22;39868;53.398;6.564;2022-11-27T14:15:07;9.50;79.80
53962;DHT22;39868;53.398;6.564;2022-11-27T14:17:47;9.50;79.80
53962;DHT22;39868;53.398;6.564;2022-11-27T14:22:49;9.50;79.90
53962;DHT22;39868;53.398;6.564;2022-11-27T14:25:37;9.50;79.90
53962;DHT22;39868;53.398;6.564;2022-11-27T14:28:15;9.50;79.80
53962;DHT22;39868;53.398;6.564;2022-11-27T14:30:49;9.50;79.90
53962;DHT22;39868;53.398;6.564;2022-11-27T14:33:32;9.40;79.80
53962;DHT22;39868;53.398;6.564;2022-11-27T14:36:33;9.50;79.90
53962;DHT22;39868;53.398;6.564;2022-11-27T14:39:02;9.40;79.90
53962;DHT22;39868;53.398;6.564;2022-11-27T14:41:30;9.40;79.90
53962;DHT22;39868;53.398;6.564;2022-11-27T14:44:13;9.50;79.90
53962;DHT22;39868;53.398;6.564;2022-11-27T14:46:41;9.40;79.90
53962;DHT22;39868;53.398;6.564;2022-11-27T14:49:20;9.40;79.90
53962;DHT22;39868;53.398;6.564;2022-11-27T14:51:48;9.40;80.00
53962;DHT22;39868;53.398;6.564;2022-11-27T14:54:30;9.40;79.90
53962;DHT22;39868;53.398;6.564;2022-11-27T14:56:58;9.40;79.90
53962;DHT22;39868;53.398;6.564;2022-11-27T14:59:26;9.40;79.90
53962;DHT22;39868;53.398;6.564;2022-11-27T15:02:14;9.40;80.00
53962;DHT22;39868;53.398;6.564;2022-11-27T15:04:44;9.40;80.00
53962;DHT22;39868;53.398;6.564;2022-11-27T15:07:16;9.40;80.00
53962;DHT22;39868;53.398;6.564;2022-11-27T15:09:50;9.40;80.00
53962;DHT22;39868;53.398;6.564;2022-11-27T15:12:29;9.30;80.00
53962;DHT22;39868;53.398;6.564;2022-11-27T15:15:01;9.30;80.00
53962;DHT22;39868;53.398;6.564;2022-11-27T15:17:37;9.40;80.00
53962;DHT22;39868;53.398;6.564;2022-11-27T15:20:15;9.40;80.00
53962;DHT22;39868;53.398;6.564;2022-11-27T15:22:55;9.30;80.00
53962;DHT22;39868;53.398;6.564;2022-11-27T15:25:32;9.30;80.00
53962;DHT22;39868;53.398;6.564;2022-11-27T15:28:01;9.30;80.00
53962;DHT22;39868;53.398;6.564;2022-11-27T15:30:29;9.30;80.00
53962;DHT22;39868;53.398;6.564;2022-11-27T15:32:56;9.30;80.00
53962;DHT22;39868;53.398;6.564;2022-11-27T15:35:30;9.30;80.00
53962;DHT22;39868;53.398;6.564;2022-11-27T15:38:09;9.30;80.00
53962;DHT22;39868;53.398;6.564;2022-11-27T15:40:39;9.30;80.10
53962;DHT22;39868;53.398;6.564;2022-11-27T15:43:15;9.30;80.10
53962;DHT22;39868;53.398;6.564;2022-11-27T15:45:43;9.30;80.10
53962;DHT22;39868;53.398;6.564;2022-11-27T15:48:14;9.30;80.10
53962;DHT22;39868;53.398;6.564;2022-11-27T15:50:42;9.30;80.10
53962;DHT22;39868;53.398;6.564;2022-11-27T15:53:18;9.30;80.10
53962;DHT22;39868;53.398;6.564;2022-11-27T15:55:45;9.30;80.10
53962;DHT22;39868;53.398;6.564;2022-11-27T15:58:14;9.30;80.10
53962;DHT22;39868;53.398;6.564;2022-11-27T16:00:42;9.30;80.10
53962;DHT22;39868;53.398;6.564;2022-11-27T16:03:09;9.40;80.20
53962;DHT22;39868;53.398;6.564;2022-11-27T16:05:37;9.40;80.20
53962;DHT22;39868;53.398;6.564;2022-11-27T16:08:04;9.30;80.10
53962;DHT22;39868;53.398;6.564;2022-11-27T16:10:33;9.30;80.10
53962;DHT22;39868;53.398;6.564;2022-11-27T16:13:01;9.30;80.20
53962;DHT22;39868;53.398;6.564;2022-11-27T16:15:28;9.40;80.20
53962;DHT22;39868;53.398;6.564;2022-11-27T16:17:59;9.30;80.20
53962;DHT22;39868;53.398;6.564;2022-11-27T16:20:27;9.30;80.20
53962;DHT22;39868;53.398;6.564;2022-11-27T16:22:54;9.30;80.10
53962;DHT22;39868;53.398;6.564;2022-11-27T16:25:22;9.30;80.10
53962;DHT22;39868;53.398;6.564;2022-11-27T16:27:51;9.30;80.20
53962;DHT22;39868;53.398;6.564;2022-11-27T16:30:25;9.30;80.20
53962;DHT22;39868;53.398;6.564;2022-11-27T16:32:52;9.30;80.20
53962;DHT22;39868;53.398;6.564;2022-11-27T16:35:22;9.30;80.20
53962;DHT22;39868;53.398;6.564;2022-11-27T16:37:51;9.30;80.20
53962;DHT22;39868;53.398;6.564;2022-11-27T16:40:19;9.30;80.20
53962;DHT22;39868;53.398;6.564;2022-11-27T16:42:47;9.30;80.20
53962;DHT22;39868;53.398;6.564;2022-11-27T16:45:17;9.30;80.20
53962;DHT22;39868;53.398;6.564;2022-11-27T16:47:44;9.30;80.30
53962;DHT22;39868;53.398;6.564;2022-11-27T16:50:12;9.30;80.30
53962;DHT22;39868;53.398;6.564;2022-11-27T16:52:41;9.30;80.30
53962;DHT22;39868;53.398;6.564;2022-11-27T16:55:11;9.30;80.30
53962;DHT22;39868;53.398;6.564;2022-11-27T16:57:41;9.30;80.40
53962;DHT22;39868;53.398;6.564;2022-11-27T17:00:09;9.30;80.40
53962;DHT22;39868;53.398;6.564;2022-11-27T17:02:36;9.20;80.30
53962;DHT22;39868;53.398;6.564;2022-11-27T17:05:05;9.30;80.40
53962;DHT22;39868;53.398;6.564;2022-11-27T17:07:33;9.20;80.40
53962;DHT22;39868;53.398;6.564;2022-11-27T17:10:04;9.20;80.40
53962;DHT22;39868;53.398;6.564;2022-11-27T17:12:31;9.20;80.40
53962;DHT22;39868;53.398;6.564;2022-11-27T17:15:01;9.30;80.50
53962;DHT22;39868;53.398;6.564;2022-11-27T17:17:29;9.20;80.50
53962;DHT22;39868;53.398;6.564;2022-11-27T17:20:06;9.20;80.50
53962;DHT22;39868;53.398;6.564;2022-11-27T17:22:33;9.30;80.50
53962;DHT22;39868;53.398;6.564;2022-11-27T17:25:02;9.30;80.50
53962;DHT22;39868;53.398;6.564;2022-11-27T17:27:31;9.30;80.60
53962;DHT22;39868;53.398;6.564;2022-11-27T17:30:01;9.30;80.60
53962;DHT22;39868;53.398;6.564;2022-11-27T17:32:28;9.30;80.60
53962;DHT22;39868;53.398;6.564;2022-11-27T17:34:56;9.30;80.60
53962;DHT22;39868;53.398;6.564;2022-11-27T17:37:24;9.30;80.60
53962;DHT22;39868;53.398;6.564;2022-11-27T17:39:51;9.30;80.60
53962;DHT22;39868;53.398;6.564;2022-11-27T17:42:19;9.30;80.60
53962;DHT22;39868;53.398;6.564;2022-11-27T17:44:49;9.30;80.60
53962;DHT22;39868;53.398;6.564;2022-11-27T17:47:17;9.30;80.60
53962;DHT22;39868;53.398;6.564;2022-11-27T17:49:45;9.30;80.60
53962;DHT22;39868;53.398;6.564;2022-11-27T17:52:12;9.30;80.60
53962;DHT22;39868;53.398;6.564;2022-11-27T17:54:41;9.30;80.70
53962;DHT22;39868;53.398;6.564;2022-11-27T17:57:09;9.30;80.60
53962;DHT22;39868;53.398;6.564;2022-11-27T17:59:38;9.30;80.60